Durand, Michigan
Current Conditions -  °F | °C
As of 9:34 PM on Friday 24 Oct 2014 (Local Time) from KRNP Reporting Station
Clear Clear  
Wind Chill: 47°   Ceiling: Unl
Heat Index: 47°   Visibility: 7mi
Dew Point: 47°   Wind: 0mph
Humidity: 97%   Direction: NA
Pressure: 29.96"   Gusts: NA
Location:  42.91°N, 83.98°W
Report Text: KRNP 250134Z AUTO 00000KT 7SM CLR 09/08 A2996 RMK AO2 T00860081
Loading
Personal Weather Stations






























Interactive Weather Map
Tropical Storm Tracking
New forecast layout! Learn more

10-Day Weather Forecast

Advertisements
Track Severe Weather on mobile